Time;durP1;ratioP1;P1;durP2;ratioP2;P2;SDS_P1;SDS_P2;PMS_P1;PMS_P2;Temp;Humidity;BMP_temperature;BMP_pressure;BME280_temperature;BME280_humidity;BME280_pressure;Samples;Min_cycle;Max_cycle;Signal;HPM_P1;HPM_P2
2022/05/01 00:01:08;;;;;;;;;13.75;11.75;;;;;13.25;42.89;101885.06;5091975;27;45603;-90
2022/05/01 00:03:35;;;;;;;;;12.75;10.25;;;;;13.24;42.72;101884.16;5089806;28;47452;-90
2022/05/01 00:06:03;;;;;;;;;11.00;11.00;;;;;13.24;43.26;101888.53;5091822;27;45047;-89
2022/05/01 00:08:28;;;;;;;;;11.00;10.50;;;;;13.15;43.02;101874.09;5093090;27;45183;-91
2022/05/01 00:10:55;;;;;;;;;10.25;10.25;;;;;13.18;43.10;101881.25;5093245;28;45094;-91
2022/05/01 00:13:21;;;;;;;;;15.00;11.00;;;;;13.14;43.29;101871.38;5090555;27;45066;-91
2022/05/01 00:15:47;;;;;;;;;9.50;8.75;;;;;13.03;43.34;101855.09;5094196;27;45024;-90
2022/05/01 00:18:12;;;;;;;;;11.00;11.00;;;;;13.14;43.54;101877.56;5102091;27;44914;-89
2022/05/01 00:20:38;;;;;;;;;10.25;10.00;;;;;13.04;43.34;101866.56;5094311;27;45651;-91
2022/05/01 00:23:03;;;;;;;;;11.00;9.25;;;;;13.05;43.47;101873.63;5092307;27;45316;-92
2022/05/01 00:25:28;;;;;;;;;12.50;12.00;;;;;13.08;43.70;101879.03;5092429;27;45570;-85
2022/05/01 00:27:55;;;;;;;;;10.75;10.75;;;;;13.03;43.74;101877.94;5091268;27;45185;-91
2022/05/01 00:30:20;;;;;;;;;13.00;11.75;;;;;13.02;43.43;101877.06;5094071;27;46308;-90
2022/05/01 00:38:14;;;;;;;;;18.00;13.25;;;;;12.94;44.36;101882.81;5091659;28;45082;-87
2022/05/01 00:40:39;;;;;;;;;13.33;12.00;;;;;12.87;44.17;101871.13;5093220;27;45305;-91
2022/05/01 00:43:05;;;;;;;;;17.00;14.25;;;;;12.93;44.25;101884.56;5107992;27;45051;-90
2022/05/01 00:45:31;;;;;;;;;15.00;13.00;;;;;12.91;44.52;101873.97;5093206;27;45354;-92
2022/05/01 00:47:57;;;;;;;;;15.25;15.25;;;;;12.80;44.10;101851.47;5091589;27;45044;-84
2022/05/01 00:50:23;;;;;;;;;11.25;11.25;;;;;12.86;44.59;101861.41;5090743;28;45959;-90
2022/05/01 00:52:49;;;;;;;;;16.00;14.75;;;;;12.86;44.68;101861.41;5090823;28;45692;-90
2022/05/01 00:55:15;;;;;;;;;12.50;12.25;;;;;12.79;44.72;101859.31;5092684;27;45100;-91
2022/05/01 00:57:42;;;;;;;;;12.50;11.75;;;;;12.83;44.98;101872.72;5091581;27;45204;-90
2022/05/01 01:00:07;;;;;;;;;16.25;13.50;;;;;12.74;44.74;101859.13;5091048;27;45254;-91
2022/05/01 01:02:33;;;;;;;;;16.25;14.00;;;;;12.72;45.29;101854.63;5088119;27;44957;-91
2022/05/01 01:04:58;;;;;;;;;15.25;13.50;;;;;12.78;45.04;101857.53;5071370;28;45322;-91
2022/05/01 01:07:26;;;;;;;;;14.00;13.00;;;;;12.64;45.23;101847.28;5071624;28;44980;-89
2022/05/01 01:09:51;;;;;;;;;14.25;12.25;;;;;12.71;45.25;101864.28;5070898;28;46374;-91
2022/05/01 01:15:09;;;;;;;;;16.75;14.00;;;;;12.67;45.53;101851.78;5088320;28;45383;-91
2022/05/01 01:17:41;;;;;;;;;18.75;18.00;;;;;12.65;45.46;101849.06;5091973;27;45054;-89
2022/05/01 01:20:17;;;;;;;;;16.50;15.50;;;;;12.63;45.48;101842.84;5091813;27;45179;-82
2022/05/01 01:22:46;;;;;;;;;18.50;17.25;;;;;12.54;45.79;101839.78;5090558;27;45161;-90
2022/05/01 01:25:12;;;;;;;;;17.00;16.50;;;;;12.49;45.79;101838.69;5091879;27;45251;-91
2022/05/01 01:27:38;;;;;;;;;16.50;15.75;;;;;12.49;45.91;101841.31;5090648;27;45256;-90
2022/05/01 01:32:50;;;;;;;;;16.25;16.00;;;;;12.45;46.32;101843.75;5093920;28;45551;-90
2022/05/01 01:35:18;;;;;;;;;18.00;17.50;;;;;12.37;46.28;101839.06;5092025;28;45557;-91
2022/05/01 01:37:47;;;;;;;;;18.75;17.50;;;;;12.39;46.27;101852.28;5091484;27;45021;-89
2022/05/01 01:40:20;;;;;;;;;15.00;15.00;;;;;12.33;46.40;101834.47;5091440;28;45955;-90
2022/05/01 01:42:48;;;;;;;;;17.00;16.00;;;;;12.35;46.38;101851.25;5090983;27;45156;-90
2022/05/01 01:45:14;;;;;;;;;18.25;17.25;;;;;12.32;46.60;101848.50;5090180;27;45260;-91
2022/05/01 01:47:40;;;;;;;;;18.50;17.00;;;;;12.31;46.87;101844.03;5091246;27;45223;-81
2022/05/01 01:50:05;;;;;;;;;17.25;15.50;;;;;12.29;46.86;101853.63;5083459;27;45543;-91
2022/05/01 01:52:33;;;;;;;;;18.75;16.00;;;;;12.27;47.01;101850.03;5071269;27;45159;-92
2022/05/01 01:54:59;;;;;;;;;16.50;15.25;;;;;12.26;47.12;101853.47;5080997;28;45053;-90
2022/05/01 01:57:25;;;;;;;;;18.00;17.25;;;;;12.21;47.00;101846.19;5092045;27;45194;-90
2022/05/01 01:59:50;;;;;;;;;18.75;18.00;;;;;12.21;47.09;101855.00;5092586;27;45174;-87
2022/05/01 02:02:15;;;;;;;;;16.00;14.67;;;;;12.19;47.65;101854.03;5091269;27;44981;-91
2022/05/01 02:04:41;;;;;;;;;19.33;16.00;;;;;12.13;47.39;101836.22;5090672;27;45267;-87
2022/05/01 02:07:06;;;;;;;;;18.75;17.00;;;;;12.14;47.31;101843.28;5089215;27;45392;-91
2022/05/01 02:09:36;;;;;;;;;19.75;16.00;;;;;12.13;47.44;101848.47;5088101;27;46106;-82
2022/05/01 02:12:01;;;;;;;;;16.50;16.50;;;;;12.11;47.61;101843.13;5089255;27;45232;-81
2022/05/01 02:14:27;;;;;;;;;20.25;17.75;;;;;12.08;47.82;101842.09;5090264;27;44916;-78
2022/05/01 02:16:55;;;;;;;;;8.25;7.75;;;;;11.88;47.84;101802.56;5091528;27;44904;-76
2022/05/01 02:19:20;;;;;;;;;20.50;20.50;;;;;12.04;47.60;101835.78;5089824;27;45569;-78
2022/05/01 02:21:45;;;;;;;;;20.50;18.00;;;;;11.96;48.10;101826.59;5089787;27;44926;-75
2022/05/01 02:24:12;;;;;;;;;21.50;20.00;;;;;12.04;48.05;101840.16;5089376;27;45268;-79
2022/05/01 02:26:38;;;;;;;;;18.00;16.75;;;;;12.02;48.37;101847.06;5089688;27;45174;-82
2022/05/01 02:29:09;;;;;;;;;19.50;18.00;;;;;11.99;48.42;101845.22;5090275;27;45286;-81
2022/05/01 02:31:36;;;;;;;;;20.50;19.50;;;;;11.98;48.37;101834.59;5091354;27;45071;-79
2022/05/01 02:34:01;;;;;;;;;19.25;18.25;;;;;11.75;48.38;101794.88;5091089;27;45027;-78
2022/05/01 02:36:26;;;;;;;;;21.00;20.00;;;;;11.86;48.34;101813.84;5089549;27;44937;-82
2022/05/01 02:38:52;;;;;;;;;17.67;16.67;;;;;11.81;48.58;101802.16;5092493;27;45452;-80
2022/05/01 02:41:18;;;;;;;;;22.25;20.50;;;;;11.91;48.75;101822.84;5092079;27;45235;-78
2022/05/01 02:43:44;;;;;;;;;22.50;18.75;;;;;11.91;48.83;101820.22;5092086;27;45039;-75
2022/05/01 02:46:09;;;;;;;;;24.75;22.00;;;;;11.84;48.85;101811.16;5094231;27;45017;-78
2022/05/01 02:48:34;;;;;;;;;19.50;18.50;;;;;11.78;48.68;101799.41;5092918;27;51031;-86
2022/05/01 02:51:04;;;;;;;;;22.75;21.50;;;;;11.85;49.01;101812.94;5092513;27;44901;-80
2022/05/01 02:53:30;;;;;;;;;21.00;19.50;;;;;11.79;49.25;101806.47;5089484;27;45715;-81
2022/05/01 02:55:55;;;;;;;;;22.25;21.25;;;;;11.82;49.32;101814.53;5093464;27;45160;-80
2022/05/01 02:58:20;;;;;;;;;21.00;18.67;;;;;11.73;49.29;101801.81;5092583;27;50728;-79
2022/05/01 03:00:46;;;;;;;;;19.00;19.00;;;;;11.78;49.48;101808.22;5094341;27;49374;-91
2022/05/01 03:03:11;;;;;;;;;22.25;18.25;;;;;11.79;49.61;101815.28;5093661;27;44762;-87
2022/05/01 03:05:36;;;;;;;;;23.33;22.33;;;;;11.74;49.73;101805.34;5093933;27;45135;-88
2022/05/01 03:08:02;;;;;;;;;21.50;19.00;;;;;11.73;49.73;101807.09;5093759;27;45489;-92
2022/05/01 03:10:27;;;;;;;;;23.75;22.00;;;;;11.75;49.71;101800.16;5093445;27;45031;-84
2022/05/01 03:12:52;;;;;;;;;22.33;21.67;;;;;11.73;49.87;101807.09;5091569;28;46111;-92
2022/05/01 03:15:18;;;;;;;;;22.25;19.75;;;;;11.67;49.79;101792.72;5083777;27;45242;-91
2022/05/01 03:23:11;;;;;;;;;20.00;18.00;;;;;11.67;50.20;101795.34;5073474;28;45152;-92
2022/05/01 03:25:36;;;;;;;;;27.00;24.50;;;;;11.59;50.39;101780.09;5072634;28;45501;-89
2022/05/01 03:28:02;;;;;;;;;24.50;22.25;;;;;11.65;50.09;101792.66;5072578;27;45673;-90
2022/05/01 03:30:28;;;;;;;;;20.00;20.00;;;;;11.66;50.28;101794.44;5095220;27;45061;-91
2022/05/01 03:32:54;;;;;;;;;27.00;24.25;;;;;11.65;50.10;101790.00;5095091;27;44907;-90
2022/05/01 03:35:19;;;;;;;;;23.33;23.00;;;;;11.62;50.45;101785.53;5093630;27;45007;-91
2022/05/01 03:37:45;;;;;;;;;22.25;20.00;;;;;11.61;50.40;101780.16;5092557;27;45546;-87
2022/05/01 03:40:12;;;;;;;;;25.50;23.00;;;;;11.60;50.29;101788.91;5093470;27;45040;-91
2022/05/01 03:42:38;;;;;;;;;22.00;22.00;;;;;11.59;50.49;101787.09;5093767;27;45110;-91
2022/05/01 03:45:03;;;;;;;;;23.00;21.67;;;;;11.54;50.57;101785.97;5093167;27;47374;-89
2022/05/01 03:47:29;;;;;;;;;23.25;22.50;;;;;11.53;50.76;101789.47;5091790;27;45721;-88
2022/05/01 03:49:54;;;;;;;;;23.00;22.67;;;;;11.54;50.63;101788.63;5092270;28;52474;-88
2022/05/01 03:52:19;;;;;;;;;25.25;21.50;;;;;11.53;51.04;101798.25;5093394;27;45209;-90
2022/05/01 03:54:45;;;;;;;;;25.50;21.50;;;;;11.50;51.29;101789.31;5093107;27;45461;-89
2022/05/01 03:57:11;;;;;;;;;24.25;20.75;;;;;11.45;51.32;101783.81;5092338;27;46044;-89
2022/05/01 03:59:36;;;;;;;;;21.50;20.50;;;;;11.41;51.17;101779.22;5093854;27;45029;-91
2022/05/01 04:02:01;;;;;;;;;22.25;21.00;;;;;11.40;51.14;101771.25;5093379;27;45018;-89
2022/05/01 04:04:27;;;;;;;;;22.00;19.50;;;;;11.41;51.45;101780.97;5091758;28;44964;-91
2022/05/01 04:06:52;;;;;;;;;15.00;13.75;;;;;11.39;51.44;101785.25;5092829;27;45642;-91
2022/05/01 04:09:18;;;;;;;;;18.00;17.25;;;;;11.33;51.50;101778.88;5081170;27;45380;-91
2022/05/01 04:11:43;;;;;;;;;23.75;21.50;;;;;11.35;51.60;101786.84;5073486;28;45156;-90
2022/05/01 04:14:08;;;;;;;;;24.00;21.33;;;;;11.31;51.65;101775.25;5082217;28;45243;-91
2022/05/01 04:16:33;;;;;;;;;21.33;20.33;;;;;11.34;51.38;101780.66;5093552;27;46199;-89
2022/05/01 04:18:59;;;;;;;;;22.50;22.00;;;;;11.34;51.48;101778.03;5084011;27;45012;-90
2022/05/01 04:21:24;;;;;;;;;18.50;18.50;;;;;11.35;51.47;101776.31;5073416;28;45420;-91
2022/05/01 04:23:50;;;;;;;;;20.25;18.75;;;;;11.34;51.05;101785.94;5092898;27;45233;-91
2022/05/01 04:26:16;;;;;;;;;20.75;18.25;;;;;11.34;51.29;101780.66;5092704;27;46192;-92
2022/05/01 04:29:36;;;;;;;;;18.00;18.00;;;;;11.34;51.46;101779.78;5092728;28;44869;-91
2022/05/01 04:31:27;;;;;;;;;18.25;16.25;;;;;11.32;51.32;101782.31;5091592;27;45073;-91
2022/05/01 04:33:53;;;;;;;;;20.00;18.75;;;;;11.30;51.42;101778.72;5093105;27;45207;-92
2022/05/01 04:36:19;;;;;;;;;22.00;19.75;;;;;11.25;51.25;101771.44;5092607;27;45648;-91
2022/05/01 04:38:44;;;;;;;;;21.00;15.75;;;;;11.26;51.38;101770.59;5092723;28;45058;-91
2022/05/01 04:41:10;;;;;;;;;22.50;19.00;;;;;11.32;51.23;101779.69;5091508;27;45248;-89
2022/05/01 04:43:36;;;;;;;;;22.25;18.75;;;;;11.29;51.62;101770.75;5090898;27;45397;-86
2022/05/01 04:46:02;;;;;;;;;22.75;21.00;;;;;11.24;51.35;101761.75;5091523;27;45963;-90
2022/05/01 04:48:28;;;;;;;;;23.25;21.50;;;;;11.35;51.68;101785.09;5091079;27;45241;-91
2022/05/01 04:50:54;;;;;;;;;18.50;17.75;;;;;11.35;51.60;101785.09;5092126;28;45133;-90
2022/05/01 04:53:21;;;;;;;;;22.00;21.25;;;;;11.29;51.40;101765.50;5092850;27;44986;-90
2022/05/01 04:55:48;;;;;;;;;22.00;19.00;;;;;11.39;51.48;101782.63;5093669;27;45036;-89
2022/05/01 04:58:15;;;;;;;;;25.00;22.75;;;;;11.41;51.27;101780.97;5091208;27;45233;-91
2022/05/01 05:00:41;;;;;;;;;21.50;18.50;;;;;11.39;51.59;101778.25;5113824;27;45382;-91
2022/05/01 05:03:07;;;;;;;;;21.75;20.50;;;;;11.43;51.64;101788.13;5091436;27;45184;-91
2022/05/01 05:05:37;;;;;;;;;21.75;19.00;;;;;11.41;51.57;101786.22;5091103;27;45739;-85
2022/05/01 05:10:48;;;;;;;;;22.75;20.75;;;;;11.43;51.22;101796.00;5092045;28;44998;-89
2022/05/01 05:13:15;;;;;;;;;21.25;19.50;;;;;11.44;51.31;101791.66;5092312;27;45398;-87
2022/05/01 05:15:40;;;;;;;;;23.50;21.50;;;;;11.32;51.58;101765.63;5092612;27;45468;-90
2022/05/01 05:18:06;;;;;;;;;25.25;23.50;;;;;11.39;51.75;101788.78;5086940;27;45277;-92
2022/05/01 05:20:32;;;;;;;;;24.25;23.25;;;;;11.51;51.43;101807.78;5072909;28;44918;-91
2022/05/01 05:22:57;;;;;;;;;23.50;21.00;;;;;11.55;51.32;101801.84;5082459;28;44922;-90
2022/05/01 05:25:22;;;;;;;;;24.00;23.25;;;;;11.55;51.27;101800.94;5093888;27;45029;-91
2022/05/01 05:27:47;;;;;;;;;22.33;22.00;;;;;11.64;51.67;101801.38;5093505;28;45083;-88
2022/05/01 05:30:13;;;;;;;;;25.50;25.25;;;;;11.68;51.40;101798.06;5093507;27;44983;-90
2022/05/01 05:32:38;;;;;;;;;23.50;22.00;;;;;11.66;51.57;101794.44;5094235;27;45375;-84
2022/05/01 05:35:04;;;;;;;;;21.50;19.25;;;;;11.76;51.47;101809.84;5092651;27;45149;-90
2022/05/01 05:37:31;;;;;;;;;19.50;16.25;;;;;11.77;51.40;101802.84;5093601;27;45023;-91
2022/05/01 05:39:56;;;;;;;;;23.25;22.50;;;;;11.83;51.41;101809.34;5089088;27;45069;-90
2022/05/01 05:42:21;;;;;;;;;24.00;22.50;;;;;11.82;51.26;101807.56;5088951;27;44997;-84
2022/05/01 05:44:47;;;;;;;;;30.00;28.75;;;;;11.88;51.31;101806.94;5084875;28;47326;-91
2022/05/01 05:47:12;;;;;;;;;24.25;22.50;;;;;11.80;51.25;101788.09;5093203;27;45228;-89
2022/05/01 05:49:39;;;;;;;;;26.00;25.25;;;;;11.79;51.41;101791.56;5092547;27;45304;-91
2022/05/01 05:52:04;;;;;;;;;25.75;23.25;;;;;11.88;51.20;101799.03;5091743;27;44940;-88
2022/05/01 05:54:29;;;;;;;;;27.25;25.00;;;;;11.95;51.38;101808.09;5091855;27;45745;-90
2022/05/01 05:56:55;;;;;;;;;21.50;21.50;;;;;11.96;51.25;101809.91;5092435;27;45166;-89
2022/05/01 05:59:20;;;;;;;;;26.25;23.75;;;;;11.93;51.69;101804.50;5091280;27;45187;-91
2022/05/01 06:01:46;;;;;;;;;26.33;25.00;;;;;11.96;51.13;101804.63;5092905;27;45019;-89
2022/05/01 06:04:11;;;;;;;;;26.75;21.75;;;;;11.91;51.47;101790.34;5089992;27;44985;-91
2022/05/01 06:06:36;;;;;;;;;28.25;27.25;;;;;11.97;51.20;101802.09;5089052;27;45123;-91
2022/05/01 06:09:02;;;;;;;;;29.25;25.25;;;;;11.98;51.06;101795.09;5080196;27;45120;-92
2022/05/01 06:11:28;;;;;;;;;27.00;26.25;;;;;11.92;51.44;101794.78;5081274;28;45263;-91
2022/05/01 06:13:54;;;;;;;;;33.75;28.75;;;;;12.02;51.22;101804.91;5089462;27;45180;-89
2022/05/01 06:16:19;;;;;;;;;26.50;24.50;;;;;11.98;50.88;101797.72;5091394;27;45031;-89
2022/05/01 06:18:45;;;;;;;;;30.75;26.50;;;;;11.99;50.78;101803.06;5091084;27;44905;-92
2022/05/01 06:21:11;;;;;;;;;27.75;25.00;;;;;12.00;51.14;101807.47;5091396;27;45021;-92
2022/05/01 06:23:37;;;;;;;;;28.50;27.00;;;;;12.08;51.23;101821.91;5091112;27;46477;-91
2022/05/01 06:26:04;;;;;;;;;28.00;25.25;;;;;12.12;51.31;101821.22;5090532;27;44925;-89
2022/05/01 06:28:30;;;;;;;;;28.75;23.75;;;;;12.18;51.50;101817.97;5085622;27;44976;-91
2022/05/01 06:30:55;;;;;;;;;30.75;27.50;;;;;12.23;51.01;101813.81;5072922;28;45107;-92
2022/05/01 06:33:24;;;;;;;;;32.25;29.00;;;;;12.18;50.99;101802.16;5071909;28;45481;-89
2022/05/01 06:35:54;;;;;;;;;27.25;26.00;;;;;12.33;51.07;101826.56;5071469;28;45371;-91
2022/05/01 06:38:19;;;;;;;;;32.25;30.25;;;;;12.37;51.16;101825.88;5072058;28;44941;-90
2022/05/01 06:40:46;;;;;;;;;32.50;29.50;;;;;12.43;50.95;101821.69;5086358;28;45231;-92
2022/05/01 06:43:13;;;;;;;;;32.00;30.75;;;;;12.48;51.09;101818.44;5089751;27;46425;-91
2022/05/01 06:45:39;;;;;;;;;33.75;31.00;;;;;12.53;51.00;101816.00;5092075;27;45424;-90
2022/05/01 06:48:04;;;;;;;;;33.25;29.00;;;;;12.54;50.94;101812.53;5090349;27;44984;-90
2022/05/01 06:50:30;;;;;;;;;36.25;31.00;;;;;12.58;50.87;101820.63;5089917;28;45429;-87
2022/05/01 06:52:56;;;;;;;;;32.75;32.25;;;;;12.70;50.95;101825.53;5087020;28;46140;-91
2022/05/01 06:55:25;;;;;;;;;34.00;32.00;;;;;12.75;50.53;101828.38;5091735;27;44975;-89
2022/05/01 06:57:50;;;;;;;;;39.00;33.75;;;;;12.73;50.19;101817.75;5090983;28;45173;-87
2022/05/01 07:00:17;;;;;;;;;32.50;30.75;;;;;12.77;50.65;101814.41;5090712;27;45319;-90
2022/05/01 07:02:46;;;;;;;;;33.25;31.50;;;;;12.92;50.78;101827.38;5091146;28;45507;-91
2022/05/01 07:05:12;;;;;;;;;34.75;29.50;;;;;12.85;50.27;101793.63;5091479;27;45674;-91
2022/05/01 07:07:37;;;;;;;;;34.00;28.50;;;;;12.99;50.36;101810.94;5092348;27;44865;-91
2022/05/01 07:10:03;;;;;;;;;33.33;32.00;;;;;13.07;50.57;101808.63;5092142;28;44948;-91
2022/05/01 07:12:28;;;;;;;;;31.25;28.25;;;;;13.14;50.29;101806.28;5090735;27;45263;-92
2022/05/01 07:14:54;;;;;;;;;36.00;32.00;;;;;13.06;50.01;101786.63;5090621;27;45413;-87
2022/05/01 07:17:19;;;;;;;;;33.00;30.00;;;;;13.34;50.23;101815.06;5107010;27;45167;-88
2022/05/01 07:19:44;;;;;;;;;35.00;31.00;;;;;13.40;49.55;101810.03;5092073;27;45700;-92
2022/05/01 07:22:13;;;;;;;;;30.00;29.33;;;;;13.50;49.43;101808.66;5090299;28;54276;-92
2022/05/01 07:24:38;;;;;;;;;30.75;28.50;;;;;13.58;49.74;101804.56;5095840;27;45344;-91
2022/05/01 07:27:04;;;;;;;;;36.50;30.75;;;;;13.60;49.12;101789.69;5094895;27;45157;-90
2022/05/01 07:29:29;;;;;;;;;35.25;30.25;;;;;13.77;49.12;101806.19;5091803;28;45227;-90
2022/05/01 07:31:55;;;;;;;;;31.25;31.25;;;;;13.84;48.73;101804.66;5095063;27;46548;-90
2022/05/01 07:34:20;;;;;;;;;33.67;31.00;;;;;13.88;48.55;101812.78;5094703;28;45343;-88
2022/05/01 07:36:45;;;;;;;;;30.67;29.33;;;;;13.97;48.50;101811.34;5109257;27;45095;-93
2022/05/01 07:39:11;;;;;;;;;33.00;30.50;;;;;13.97;48.33;101798.13;5092480;27;45075;-90
2022/05/01 07:41:36;;;;;;;;;32.50;31.75;;;;;14.00;48.05;101795.59;5091845;27;46332;-77
2022/05/01 07:44:02;;;;;;;;;39.00;33.75;;;;;14.09;48.08;101814.47;5092858;27;45294;-87
2022/05/01 07:46:27;;;;;;;;;30.00;27.25;;;;;13.98;48.01;101792.00;5095025;27;44875;-90
2022/05/01 07:48:53;;;;;;;;;31.33;30.00;;;;;14.07;47.86;101797.63;5094318;27;45165;-89
2022/05/01 07:51:18;;;;;;;;;33.33;31.33;;;;;14.14;47.44;101808.50;5094952;27;45416;-87
2022/05/01 07:53:44;;;;;;;;;26.00;24.67;;;;;14.16;47.53;101800.59;5094363;28;44974;-90
2022/05/01 07:56:09;;;;;;;;;31.00;28.50;;;;;14.19;47.39;101806.03;5094688;27;45102;-87
2022/05/01 07:58:34;;;;;;;;;30.00;30.00;;;;;14.17;47.28;101802.41;5093493;27;45000;-92
2022/05/01 08:01:01;;;;;;;;;30.75;28.50;;;;;14.19;47.50;101795.44;5093729;27;46405;-86
2022/05/01 08:06:12;;;;;;;;;32.75;31.00;;;;;14.16;47.12;101782.09;5090972;27;45283;-78
2022/05/01 08:08:39;;;;;;;;;31.00;30.25;;;;;14.06;47.14;101779.97;5091885;27;45620;-81
2022/05/01 08:11:05;;;;;;;;;30.25;28.00;;;;;14.15;47.10;101789.13;5091347;27;46171;-84
2022/05/01 08:13:31;;;;;;;;;24.00;22.75;;;;;14.15;47.01;101797.06;5083052;27;45492;-84
2022/05/01 08:15:56;;;;;;;;;26.25;23.75;;;;;14.06;47.14;101785.25;5085959;27;45026;-80
2022/05/01 08:21:07;;;;;;;;;31.00;28.00;;;;;14.11;47.23;101783.69;5070987;28;45189;-86
2022/05/01 08:23:40;;;;;;;;;26.25;23.50;;;;;13.97;47.29;101754.09;5075130;28;45342;-84
2022/05/01 08:26:07;;;;;;;;;31.75;28.75;;;;;14.10;47.09;101779.25;5089480;27;45493;-84
2022/05/01 08:28:39;;;;;;;;;29.50;28.75;;;;;14.11;47.36;101781.94;5091228;27;45028;-84
2022/05/01 08:31:06;;;;;;;;;31.50;29.75;;;;;14.12;47.12;101766.97;5083507;27;45485;-79
2022/05/01 08:33:35;;;;;;;;;33.75;31.25;;;;;14.16;47.13;101772.41;5092682;27;45453;-87
2022/05/01 08:36:04;;;;;;;;;29.75;27.25;;;;;14.21;47.04;101775.25;5091742;27;45378;-88
2022/05/01 08:38:30;;;;;;;;;30.00;27.00;;;;;14.26;46.37;101770.13;5091277;27;44948;-80
2022/05/01 08:40:55;;;;;;;;;29.00;27.75;;;;;14.31;46.64;101763.25;5090503;27;45616;-86
2022/05/01 08:43:23;;;;;;;;;30.00;27.00;;;;;14.42;45.98;101770.69;5091005;27;45151;-82
2022/05/01 08:46:27;;;;;;;;;26.50;24.50;;;;;14.48;45.63;101771.78;5108270;27;45170;-75
2022/05/01 08:49:04;;;;;;;;;33.50;30.00;;;;;14.55;45.98;101769.44;5111294;27;45158;-85
2022/05/01 08:51:32;;;;;;;;;27.25;26.25;;;;;14.60;45.86;101769.59;5072114;28;45352;-76
2022/05/01 08:53:58;;;;;;;;;29.00;24.75;;;;;14.65;45.99;101762.72;5076491;28;45793;-85
2022/05/01 08:56:24;;;;;;;;;30.25;28.25;;;;;14.70;45.50;101755.84;5073673;27;45060;-77
2022/05/01 08:58:50;;;;;;;;;33.00;28.50;;;;;14.70;45.17;101748.78;5084564;28;45211;-79
2022/05/01 09:01:17;;;;;;;;;26.75;24.50;;;;;14.85;45.30;101766.94;5091832;27;45109;-88
2022/05/01 09:03:44;;;;;;;;;29.50;27.00;;;;;14.89;44.98;101762.66;5091406;27;44929;-84
2022/05/01 09:06:10;;;;;;;;;26.25;25.25;;;;;14.94;44.91;101751.34;5091712;27;45180;-92
2022/05/01 09:08:37;;;;;;;;;31.50;29.50;;;;;15.04;45.06;101754.31;5091593;27;45181;-80
2022/05/01 09:12:49;;;;;;;;;27.25;26.00;;;;;15.10;44.98;101758.03;5091611;27;45541;-82
2022/05/01 09:13:48;;;;;;;;;28.25;26.75;;;;;15.16;44.69;101741.44;5090465;28;45083;-75
2022/05/01 09:16:14;;;;;;;;;30.25;28.75;;;;;15.31;44.73;101738.38;5087453;27;45446;-76
2022/05/01 09:18:43;;;;;;;;;25.75;25.75;;;;;15.35;44.29;101738.53;5090743;27;44919;-76
2022/05/01 09:21:09;;;;;;;;;24.00;23.25;;;;;15.49;44.08;101738.97;5086621;27;45371;-76
2022/05/01 09:23:45;;;;;;;;;26.75;25.50;;;;;15.60;44.08;101750.78;5071331;27;45100;-78
2022/05/01 09:26:18;;;;;;;;;26.50;24.50;;;;;15.54;44.13;101726.75;5083835;27;45160;-76
2022/05/01 09:28:54;;;;;;;;;29.75;28.75;;;;;15.56;43.64;101705.59;5078668;28;45293;-87
2022/05/01 09:31:44;;;;;;;;;27.00;25.50;;;;;15.70;42.86;101726.38;5069013;27;45931;-85
2022/05/01 09:34:23;;;;;;;;;26.75;24.75;;;;;15.54;42.94;101694.06;5056349;27;46545;-75
2022/05/01 09:36:50;;;;;;;;;25.00;23.75;;;;;15.81;42.95;101729.38;5088605;27;45341;-75
2022/05/01 09:39:19;;;;;;;;;31.00;27.25;;;;;15.74;43.61;101711.47;5092584;27;44936;-76
2022/05/01 09:41:47;;;;;;;;;26.75;24.00;;;;;15.91;42.60;101728.78;5092891;27;46399;-80
2022/05/01 09:44:17;;;;;;;;;28.75;25.75;;;;;15.64;42.02;101678.50;5087420;27;45788;-78
2022/05/01 09:46:47;;;;;;;;;29.00;27.25;;;;;15.54;42.09;101659.59;5091050;27;46449;-88
2022/05/01 09:49:14;;;;;;;;;26.50;24.50;;;;;15.69;42.25;101679.53;5076111;27;45069;-77
2022/05/01 09:51:47;;;;;;;;;25.75;25.00;;;;;15.56;41.84;101652.59;5069220;28;45459;-85
2022/05/01 09:54:26;;;;;;;;;28.50;25.25;;;;;15.61;41.95;101645.66;5069542;28;45202;-76
2022/05/01 09:56:54;;;;;;;;;28.25;26.00;;;;;15.83;41.72;101676.38;5071116;28;45328;-81
2022/05/01 09:59:21;;;;;;;;;20.50;19.75;;;;;16.22;41.78;101727.88;5074843;27;45734;-76
2022/05/01 10:02:05;;;;;;;;;26.50;26.00;;;;;15.91;41.31;101633.31;5077306;28;46495;-80
2022/05/01 10:04:32;;;;;;;;;25.75;25.00;;;;;16.20;41.85;101665.91;5084431;27;45475;-75
2022/05/01 10:06:58;;;;;;;;;26.50;26.50;;;;;16.53;41.29;101707.44;5071821;27;45151;-75
2022/05/01 10:09:28;;;;;;;;;27.00;26.25;;;;;16.40;41.29;101663.78;5087059;28;45074;-76
2022/05/01 10:11:56;;;;;;;;;30.00;27.75;;;;;16.76;40.83;101719.56;5072372;28;45247;-77
2022/05/01 10:14:22;;;;;;;;;29.25;27.50;;;;;16.53;40.66;101659.66;5069834;28;45440;-75
2022/05/01 10:16:47;;;;;;;;;29.25;26.75;;;;;16.68;41.04;101669.75;5076663;28;45630;-81
2022/05/01 10:19:17;;;;;;;;;26.50;24.00;;;;;17.01;41.54;101702.47;5073827;28;45208;-75
2022/05/01 10:21:47;;;;;;;;;25.00;24.00;;;;;17.04;40.65;101685.69;5078749;27;45472;-87
2022/05/01 10:24:17;;;;;;;;;26.75;26.00;;;;;17.02;40.70;101667.06;5088502;27;45762;-79
2022/05/01 10:27:11;;;;;;;;;27.50;26.25;;;;;16.91;40.08;101628.78;5082310;28;45078;-78
2022/05/01 10:32:58;;;;;;;;;28.50;27.00;;;;;16.92;39.68;101619.03;5069097;28;45435;-81
2022/05/01 10:35:33;;;;;;;;;27.75;26.25;;;;;17.38;39.48;101691.78;5077825;28;45535;-82
2022/05/01 10:38:20;;;;;;;;;26.00;24.50;;;;;17.42;39.32;101678.59;5071529;28;45041;-84
2022/05/01 10:40:50;;;;;;;;;32.00;30.00;;;;;17.07;39.16;101606.09;5096625;27;45414;-81
2022/05/01 10:43:28;;;;;;;;;25.50;25.50;;;;;17.08;38.72;101613.19;5089891;27;45963;-79
2022/05/01 10:45:55;;;;;;;;;26.50;24.00;;;;;17.52;39.12;101663.75;5073361;28;45134;-88
2022/05/01 10:48:43;;;;;;;;;31.00;29.50;;;;;17.64;39.68;101671.09;5085239;28;45249;-85
2022/05/01 10:51:27;;;;;;;;;25.00;24.25;;;;;17.66;38.42;101669.34;5088654;27;45259;-76
2022/05/01 10:54:10;;;;;;;;;26.50;24.00;;;;;17.69;37.90;101667.66;5089320;28;45121;-80
2022/05/01 10:56:43;;;;;;;;;23.00;21.75;;;;;17.48;38.41;101636.19;5081928;28;45574;-84
2022/05/01 10:59:32;;;;;;;;;24.50;24.00;;;;;17.78;38.41;101662.56;5085622;28;45316;-77
2022/05/01 11:02:00;;;;;;;;;31.00;26.50;;;;;17.48;39.22;101582.13;5080800;28;45224;-82
2022/05/01 11:04:36;;;;;;;;;26.50;26.00;;;;;17.68;39.38;101604.69;5087234;28;47709;-79
2022/05/01 11:07:03;;;;;;;;;25.50;23.50;;;;;17.87;38.95;101598.00;5088519;28;45380;-84
2022/05/01 11:09:34;;;;;;;;;23.00;22.00;;;;;18.25;38.21;101651.91;5089417;27;45034;-80
2022/05/01 11:12:00;;;;;;;;;28.00;25.50;;;;;18.21;38.04;101631.41;5087543;28;45262;-85
2022/05/01 11:14:38;;;;;;;;;29.25;28.50;;;;;18.17;37.96;101615.38;5086146;27;45274;-75
2022/05/01 11:17:04;;;;;;;;;24.50;23.25;;;;;17.93;38.27;101563.56;5083221;27;45654;-76
2022/05/01 11:19:43;;;;;;;;;27.25;25.75;;;;;18.03;37.16;101581.47;5079071;28;45175;-75
2022/05/01 11:22:08;;;;;;;;;27.50;26.75;;;;;17.99;37.40;101582.28;5081581;28;45240;-75
2022/05/01 11:24:44;;;;;;;;;25.25;25.00;;;;;17.89;37.55;101553.72;5079163;27;45376;-77
2022/05/01 11:27:18;;;;;;;;;27.00;26.00;;;;;17.78;37.09;101537.59;5082722;27;45479;-77
2022/05/01 11:30:09;;;;;;;;;27.50;27.00;;;;;18.25;36.95;101616.41;5081380;28;45433;-76
2022/05/01 11:32:47;;;;;;;;;27.50;25.00;;;;;17.84;37.52;101539.44;5069857;28;45712;-84
2022/05/01 11:35:14;;;;;;;;;28.75;27.75;;;;;17.91;37.01;101537.78;5076797;27;45634;-76
2022/05/01 11:38:05;;;;;;;;;28.00;27.25;;;;;18.42;37.32;101614.00;5085379;28;45103;-78
2022/05/01 11:40:32;;;;;;;;;27.75;26.00;;;;;18.24;37.56;101551.66;5077674;27;45061;-75